»·PEaware :: N208GG KSNA-KSNA

N208GG :: KSNA-KSNA

FLIGHT INFORMATION

Flight Status: Arrived
Operator: Privately registered:
United States
More flights under this callsign
Pilot: Hunter M. (19355)
Aircraft: CESSNA 172 SKYHAWK
(C172)
More flights by this aircraft type
Origin: KSNA John Wayne-Orange Co
United States
Destination: KSNA John Wayne-Orange Co
United States
More flights between these airports :: More routes between these airports
Route: SLI
File this flight plan on PilotEdge
Remarks: practice approaches
Altitude:
(Current/Filed)
3,500ft
Speed:
(Current/Filed)
118kts
Departed: 19-Nov-19 11:12 AM
Arrived: 19-Nov-19 11:39 AM
Distance/Time
Traveled:
1nm/0:27
Distance/Time
To Go:
Arrived

Flight Plot

Page will automatically refresh every two minutes.


Map Options




Map Legend


Flown Route
Filed Route
Departure Airport
Arrival Airport
Navaid (VOR, NDB)
Fix

Horizontal Profiles

Position Reports

Time Latitude Longitude Heading Altitude Ground
Speed
19-Nov-19 10:31 33.667475 -117.870744 38 59ft 0kts
19-Nov-19 10:32 33.667476 -117.870743 38 59ft 0kts
19-Nov-19 10:33 33.667476 -117.870743 38 59ft 0kts
19-Nov-19 10:34 33.667477 -117.870742 38 59ft 0kts
19-Nov-19 10:35 33.667478 -117.870741 38 59ft 0kts
19-Nov-19 10:36 33.667479 -117.870741 38 59ft 0kts
19-Nov-19 10:37 33.667479 -117.870740 38 59ft 0kts
19-Nov-19 10:38 33.667480 -117.870739 38 59ft 0kts
19-Nov-19 10:39 33.667481 -117.870738 38 59ft 0kts
19-Nov-19 10:40 33.667481 -117.870738 38 59ft 0kts
19-Nov-19 10:41 33.667482 -117.870737 38 59ft 0kts
19-Nov-19 10:42 33.667483 -117.870736 38 59ft 0kts
19-Nov-19 10:43 33.667484 -117.870736 38 59ft 0kts
19-Nov-19 10:45 33.667484 -117.870735 38 59ft 0kts
19-Nov-19 10:46 33.667485 -117.870734 38 59ft 0kts
19-Nov-19 10:47 33.667486 -117.870734 38 59ft 0kts
19-Nov-19 10:48 33.667487 -117.870733 38 59ft 0kts
19-Nov-19 10:49 33.667487 -117.870732 38 59ft 0kts
19-Nov-19 10:50 33.667488 -117.870731 38 59ft 0kts
19-Nov-19 10:51 33.667489 -117.870731 38 59ft 0kts
19-Nov-19 10:52 33.667490 -117.870730 38 59ft 0kts
19-Nov-19 10:53 33.667491 -117.870729 38 59ft 0kts
19-Nov-19 10:54 33.668490 -117.871484 24 59ft 18kts
19-Nov-19 10:55 33.672358 -117.868090 32 59ft 15kts
19-Nov-19 10:56 33.675278 -117.866316 24 59ft 16kts
19-Nov-19 10:57 33.679362 -117.863883 29 59ft 8kts
19-Nov-19 10:58 33.679647 -117.863794 337 59ft 0kts
19-Nov-19 10:59 33.679648 -117.863795 337 59ft 0kts
19-Nov-19 11:00 33.679649 -117.863795 337 59ft 0kts
19-Nov-19 11:01 33.679650 -117.863795 337 59ft 0kts
19-Nov-19 11:02 33.679651 -117.863796 337 59ft 0kts
19-Nov-19 11:03 33.679652 -117.863796 337 59ft 0kts
19-Nov-19 11:04 33.679652 -117.863797 337 59ft 0kts
19-Nov-19 11:05 33.679653 -117.863797 337 59ft 0kts
19-Nov-19 11:05 33.679654 -117.863798 337 59ft 0kts
19-Nov-19 11:06 33.679655 -117.863798 337 59ft 0kts
19-Nov-19 11:08 33.679656 -117.863799 337 59ft 0kts
19-Nov-19 11:08 33.679657 -117.863799 337 59ft 0kts
19-Nov-19 11:09 33.679658 -117.863799 337 59ft 0kts
19-Nov-19 11:10 33.679802 -117.864312 234 59ft 7kts
19-Nov-19 11:11 33.671088 -117.869686 207 238ft 78kts
19-Nov-19 11:12 33.655647 -117.886785 244 1195ft 76kts
19-Nov-19 11:13 33.645473 -117.911095 241 1971ft 89kts
19-Nov-19 11:14 33.631605 -117.942660 241 2007ft 116kts
19-Nov-19 11:15 33.616257 -117.976830 241 1999ft 116kts
19-Nov-19 11:16 33.601637 -118.009231 242 1988ft 103kts
19-Nov-19 11:17 33.615348 -118.021611 10 2470ft 99kts
19-Nov-19 11:18 33.643364 -118.012657 10 3058ft 131kts
19-Nov-19 11:19 33.677706 -118.002373 10 2994ft 118kts
19-Nov-19 11:20 33.708302 -117.988070 31 3008ft 121kts
19-Nov-19 11:21 33.735899 -117.964400 32 2998ft 122kts
19-Nov-19 11:22 33.763430 -117.940777 31 2997ft 121kts
19-Nov-19 11:23 33.790978 -117.917111 31 2996ft 121kts
19-Nov-19 11:24 33.818402 -117.893573 31 2999ft 121kts
19-Nov-19 11:25 33.843370 -117.871886 31 2993ft 104kts
19-Nov-19 11:26 33.866620 -117.851506 31 3000ft 103kts
19-Nov-19 11:27 33.889848 -117.831139 31 3000ft 103kts
19-Nov-19 11:28 33.882488 -117.803041 134 3010ft 109kts
19-Nov-19 11:29 33.860569 -117.777936 164 2999ft 107kts
19-Nov-19 11:30 33.831200 -117.775833 184 3001ft 105kts
19-Nov-19 11:31 33.804271 -117.786140 211 2939ft 102kts
19-Nov-19 11:32 33.780946 -117.803949 212 2628ft 99kts
19-Nov-19 11:33 33.759604 -117.816885 205 1827ft 79kts
19-Nov-19 11:34 33.739748 -117.828209 208 1092ft 77kts
19-Nov-19 11:35 33.721532 -117.840348 209 1147ft 73kts
19-Nov-19 11:36 33.701873 -117.852221 211 755ft 78kts
19-Nov-19 11:37 33.684654 -117.863191 206 173ft 60kts
19-Nov-19 11:38 33.675606 -117.868896 180 59ft 17kts
19-Nov-19 11:39 33.674380 -117.868508 134 59ft 0kts
19-Nov-19 11:40 33.672870 -117.865363 109 59ft 0kts
19-Nov-19 11:46 33.667469 -117.870748 38 59ft 0kts
19-Nov-19 11:47 33.667470 -117.870747 38 59ft 0kts
19-Nov-19 11:48 33.667471 -117.870746 38 59ft 0kts
19-Nov-19 11:49 33.667472 -117.870745 38 59ft 0kts
19-Nov-19 11:50 33.667472 -117.870745 38 59ft 0kts
19-Nov-19 11:51 33.667473 -117.870744 38 59ft 0kts
19-Nov-19 11:52 33.667474 -117.870743 38 59ft 0kts

Navigation Log

Ident Type
Flight plan parsing failed, navigation log unavailable